createdAt,value
2022-09-03T00:00:21.561Z,21.51
2022-09-03T00:03:22.820Z,21.54
2022-09-03T00:06:08.209Z,21.56
2022-09-03T00:09:14.464Z,21.52
2022-09-03T00:12:06.252Z,21.49
2022-09-03T00:15:02.768Z,21.53
2022-09-03T00:17:39.401Z,21.50
2022-09-03T00:20:20.296Z,21.63
2022-09-03T00:22:54.508Z,21.53
2022-09-03T00:25:59.669Z,21.50
2022-09-03T00:28:39.093Z,21.46
2022-09-03T00:31:24.309Z,21.41
2022-09-03T00:33:56.447Z,21.43
2022-09-03T00:36:34.799Z,21.42
2022-09-03T00:39:01.712Z,21.41
2022-09-03T00:42:25.387Z,21.28
2022-09-03T00:45:25.426Z,21.35
2022-09-03T00:48:03.963Z,21.27
2022-09-03T00:50:49.730Z,21.25
2022-09-03T00:53:19.106Z,21.23
2022-09-03T00:55:58.803Z,21.15
2022-09-03T00:58:29.749Z,21.13
2022-09-03T01:00:56.932Z,21.12
2022-09-03T01:04:04.061Z,21.11
2022-09-03T01:06:55.542Z,21.04
2022-09-03T01:10:32.280Z,20.98
2022-09-03T01:13:11.891Z,20.94
2022-09-03T01:16:23.699Z,20.97
2022-09-03T01:19:31.844Z,20.99
2022-09-03T01:22:40.781Z,20.94
2022-09-03T01:25:15.244Z,20.97
2022-09-03T01:28:20.513Z,20.96
2022-09-03T01:31:18.665Z,20.86
2022-09-03T01:34:26.162Z,20.98
2022-09-03T01:37:37.201Z,20.97
2022-09-03T01:40:06.873Z,21.00
2022-09-03T01:43:06.016Z,21.00
2022-09-03T01:46:00.522Z,21.04
2022-09-03T01:48:33.601Z,20.96
2022-09-03T01:51:25.455Z,20.98
2022-09-03T01:54:26.072Z,20.92
2022-09-03T01:57:47.498Z,20.95
2022-09-03T02:00:23.004Z,20.99
2022-09-03T02:02:52.299Z,21.00
2022-09-03T02:05:24.110Z,20.89
2022-09-03T02:07:56.274Z,20.88
2022-09-03T02:10:34.642Z,20.80
2022-09-03T02:13:14.002Z,20.88
2022-09-03T02:15:48.389Z,20.76
2022-09-03T02:18:27.170Z,20.85
2022-09-03T02:20:54.647Z,20.83
2022-09-03T02:23:27.662Z,20.92
2022-09-03T02:26:02.408Z,20.86
2022-09-03T02:28:32.129Z,20.81
2022-09-03T02:30:59.186Z,20.84
2022-09-03T02:33:27.283Z,20.83
2022-09-03T02:35:55.192Z,20.88
2022-09-03T02:38:26.971Z,20.77
2022-09-03T02:40:54.651Z,20.65
2022-09-03T02:43:50.559Z,20.67
2022-09-03T02:46:30.089Z,20.72
2022-09-03T02:48:57.077Z,20.58
2022-09-03T02:51:23.959Z,20.64
2022-09-03T02:53:51.315Z,20.77
2022-09-03T02:56:18.209Z,20.75
2022-09-03T02:58:45.089Z,20.75
2022-09-03T03:01:16.266Z,20.78
2022-09-03T03:03:50.855Z,20.70
2022-09-03T03:06:20.447Z,20.59
2022-09-03T03:08:48.683Z,20.47
2022-09-03T03:11:18.183Z,20.54
2022-09-03T03:13:46.576Z,20.56
2022-09-03T03:16:16.840Z,20.34
2022-09-03T03:18:46.174Z,20.46
2022-09-03T03:21:16.173Z,20.37
2022-09-03T03:23:44.064Z,20.43
2022-09-03T03:26:15.176Z,20.36
2022-09-03T03:28:42.311Z,20.44
2022-09-03T03:31:16.168Z,20.47
2022-09-03T03:33:43.544Z,20.25
2022-09-03T03:36:13.981Z,20.31
2022-09-03T03:38:43.850Z,20.30
2022-09-03T03:41:18.975Z,20.23
2022-09-03T03:43:45.950Z,20.34
2022-09-03T03:46:13.877Z,20.27
2022-09-03T03:48:41.344Z,20.34
2022-09-03T03:51:10.618Z,20.42
2022-09-03T03:53:38.889Z,20.40
2022-09-03T03:56:10.142Z,20.47
2022-09-03T03:58:37.883Z,20.45
2022-09-03T04:01:14.290Z,20.37
2022-09-03T04:03:41.686Z,20.41
2022-09-03T04:06:10.815Z,20.43
2022-09-03T04:08:40.268Z,20.46
2022-09-03T04:11:11.365Z,20.48
2022-09-03T04:13:41.404Z,20.44
2022-09-03T04:16:21.483Z,20.45
2022-09-03T04:18:50.197Z,20.44
2022-09-03T04:21:21.087Z,20.45
2022-09-03T04:23:50.608Z,20.48
2022-09-03T04:26:24.541Z,20.41
2022-09-03T04:28:52.108Z,20.49
2022-09-03T04:31:21.216Z,20.52
2022-09-03T04:33:48.108Z,20.51
2022-09-03T04:36:20.920Z,20.52
2022-09-03T04:38:51.107Z,20.46
2022-09-03T04:41:21.366Z,20.45
2022-09-03T04:43:51.150Z,20.45
2022-09-03T04:46:20.685Z,20.53
2022-09-03T04:48:54.059Z,20.49
2022-09-03T04:51:27.206Z,20.38
2022-09-03T04:53:58.017Z,20.45
2022-09-03T04:56:29.566Z,20.49
2022-09-03T04:59:00.118Z,20.38
2022-09-03T05:01:32.186Z,20.42
2022-09-03T05:04:00.157Z,20.42
2022-09-03T05:06:29.571Z,20.42
2022-09-03T05:08:57.089Z,20.32
2022-09-03T05:11:25.262Z,20.32
2022-09-03T05:13:55.738Z,20.25
2022-09-03T05:16:24.232Z,20.12
2022-09-03T05:18:59.878Z,20.04
2022-09-03T05:21:28.569Z,20.12
2022-09-03T05:23:55.885Z,20.04
2022-09-03T05:26:29.103Z,19.98
2022-09-03T05:28:59.723Z,19.97
2022-09-03T05:31:30.215Z,19.84
2022-09-03T05:34:00.642Z,19.82
2022-09-03T05:36:32.154Z,19.83
2022-09-03T05:38:59.786Z,19.87
2022-09-03T05:41:28.991Z,19.90
2022-09-03T05:43:59.777Z,20.04
2022-09-03T05:46:32.025Z,20.09
2022-09-03T05:49:03.890Z,20.02
2022-09-03T05:51:32.425Z,20.12
2022-09-03T05:53:59.975Z,20.23
2022-09-03T05:56:29.523Z,20.37
2022-09-03T05:59:03.162Z,20.34
2022-09-03T06:01:51.570Z,20.50
2022-09-03T06:04:21.256Z,20.59
2022-09-03T06:06:49.144Z,20.68
2022-09-03T06:09:23.365Z,20.67
2022-09-03T06:11:51.705Z,20.79
2022-09-03T06:14:20.139Z,20.91
2022-09-03T06:16:49.629Z,20.94
2022-09-03T06:19:17.014Z,20.97
2022-09-03T06:21:46.452Z,20.62
2022-09-03T06:24:28.430Z,20.57
2022-09-03T06:26:56.683Z,20.44
2022-09-03T06:29:23.626Z,20.45
2022-09-03T06:31:51.196Z,20.46
2022-09-03T06:34:22.676Z,20.53
2022-09-03T06:36:49.758Z,20.41
2022-09-03T06:39:16.950Z,20.32
2022-09-03T06:41:45.920Z,20.43
2022-09-03T06:44:13.143Z,20.26
2022-09-03T06:46:43.904Z,20.30
2022-09-03T06:49:11.798Z,20.34
2022-09-03T06:51:39.469Z,20.44
2022-09-03T06:54:11.650Z,20.50
2022-09-03T06:56:41.228Z,20.31
2022-09-03T06:59:14.190Z,20.30
2022-09-03T07:01:45.045Z,20.26
2022-09-03T07:04:20.132Z,19.75
2022-09-03T07:06:47.492Z,19.82
2022-09-03T07:09:15.622Z,19.64
2022-09-03T07:11:48.057Z,19.67
2022-09-03T07:14:19.936Z,19.70
2022-09-03T07:16:49.205Z,19.81
2022-09-03T07:19:16.626Z,19.78
2022-09-03T07:21:48.891Z,19.86
2022-09-03T07:24:16.808Z,19.86
2022-09-03T07:26:49.566Z,19.61
2022-09-03T07:29:20.209Z,19.80
2022-09-03T07:31:51.157Z,19.91
2022-09-03T07:34:18.270Z,20.01
2022-09-03T07:36:48.898Z,20.18
2022-09-03T07:39:20.353Z,20.20
2022-09-03T07:41:47.922Z,20.14
2022-09-03T07:44:19.453Z,20.07
2022-09-03T07:46:47.985Z,20.14
2022-09-03T07:49:15.242Z,20.20
2022-09-03T07:51:42.273Z,20.29
2022-09-03T07:54:11.346Z,20.09
2022-09-03T07:56:40.432Z,19.89
2022-09-03T07:59:08.389Z,19.61
2022-09-03T08:01:36.347Z,19.67
2022-09-03T08:04:07.061Z,19.46
2022-09-03T08:06:37.580Z,19.28
2022-09-03T08:09:08.334Z,19.29
2022-09-03T08:11:39.381Z,19.27
2022-09-03T08:14:10.010Z,19.29
2022-09-03T08:16:42.217Z,19.26
2022-09-03T08:19:09.607Z,19.43
2022-09-03T08:21:36.915Z,19.45
2022-09-03T08:24:04.475Z,19.48
2022-09-03T08:26:35.244Z,19.47
2022-09-03T08:29:03.012Z,19.37
2022-09-03T08:31:30.949Z,19.49
2022-09-03T08:34:06.388Z,19.67
2022-09-03T08:36:38.759Z,19.84
2022-09-03T08:39:09.743Z,19.87
2022-09-03T08:42:04.748Z,20.03
2022-09-03T08:44:49.499Z,20.13
2022-09-03T08:47:34.226Z,20.06
2022-09-03T08:50:18.138Z,19.75
2022-09-03T08:53:46.601Z,20.28
2022-09-03T08:56:25.771Z,21.18
2022-09-03T08:58:52.776Z,21.49
2022-09-03T09:02:00.353Z,22.28
2022-09-03T09:05:40.035Z,21.88
2022-09-03T09:08:34.333Z,21.49
2022-09-03T09:11:27.050Z,21.27
2022-09-03T09:14:00.484Z,20.99
2022-09-03T09:16:55.079Z,20.62
2022-09-03T09:20:11.673Z,20.46
2022-09-03T09:22:47.635Z,20.32
2022-09-03T09:25:20.769Z,21.00
2022-09-03T09:28:18.358Z,22.24
2022-09-03T09:30:48.564Z,23.02
2022-09-03T09:33:17.983Z,24.35
2022-09-03T09:35:45.969Z,28.89
2022-09-03T09:38:13.537Z,31.42
2022-09-03T09:40:45.645Z,29.41
2022-09-03T09:43:22.902Z,27.02
2022-09-03T09:45:53.214Z,26.24
2022-09-03T09:48:34.552Z,28.43
2022-09-03T09:51:12.061Z,32.59
2022-09-03T09:53:42.739Z,32.28
2022-09-03T09:56:21.067Z,30.41
2022-09-03T09:58:49.160Z,28.87
2022-09-03T10:01:25.774Z,27.93
2022-09-03T10:03:59.603Z,28.06
2022-09-03T10:06:48.454Z,28.03
2022-09-03T10:09:19.079Z,29.88
2022-09-03T10:12:24.833Z,32.83
2022-09-03T10:15:07.437Z,37.91
2022-09-03T10:17:46.263Z,39.68
2022-09-03T10:20:27.283Z,40.08
2022-09-03T10:23:04.574Z,41.76
2022-09-03T10:25:51.982Z,41.56
2022-09-03T10:28:23.187Z,40.56
2022-09-03T10:31:08.454Z,37.51
2022-09-03T10:34:06.731Z,33.97
2022-09-03T10:37:15.950Z,33.03
2022-09-03T10:39:50.096Z,31.64
2022-09-03T10:42:48.545Z,30.77
2022-09-03T10:45:28.990Z,30.74
2022-09-03T10:48:25.709Z,29.74
2022-09-03T10:51:06.273Z,29.80
2022-09-03T10:54:14.739Z,29.61
2022-09-03T10:57:03.397Z,28.86
2022-09-03T11:00:02.874Z,28.69
2022-09-03T11:02:52.242Z,28.30
2022-09-03T11:05:42.667Z,27.94
2022-09-03T11:08:36.643Z,27.97
2022-09-03T11:11:14.498Z,27.72
2022-09-03T11:13:51.878Z,27.58
2022-09-03T11:16:26.949Z,26.46
2022-09-03T11:19:47.975Z,26.42
2022-09-03T11:22:20.750Z,26.40
2022-09-03T11:24:58.437Z,26.59
2022-09-03T11:27:43.453Z,26.77
2022-09-03T11:30:14.200Z,26.65
2022-09-03T11:32:55.797Z,26.33
2022-09-03T11:35:31.775Z,26.32
2022-09-03T11:38:06.035Z,26.71
2022-09-03T11:40:38.342Z,27.04
2022-09-03T11:43:28.970Z,27.02
2022-09-03T11:46:22.205Z,27.31
2022-09-03T11:48:58.193Z,27.00
2022-09-03T11:51:30.917Z,26.94
2022-09-03T11:54:01.871Z,26.86
2022-09-03T11:56:31.228Z,26.11
2022-09-03T11:59:15.630Z,26.42
2022-09-03T12:02:02.285Z,25.98
2022-09-03T12:04:58.136Z,25.89
2022-09-03T12:08:13.815Z,25.66
2022-09-03T12:11:13.963Z,25.88
2022-09-03T12:14:01.935Z,26.08
2022-09-03T12:17:03.488Z,25.91
2022-09-03T12:19:36.432Z,25.78
2022-09-03T12:22:05.381Z,25.65
2022-09-03T12:24:37.711Z,25.90
2022-09-03T12:27:05.801Z,26.19
2022-09-03T12:29:32.984Z,26.49
2022-09-03T12:32:18.642Z,26.67
2022-09-03T12:34:45.511Z,26.64
2022-09-03T12:40:29.545Z,26.44
2022-09-03T12:46:12.982Z,25.65
2022-09-03T12:52:14.082Z,25.60
2022-09-03T12:55:28.179Z,25.61
2022-09-03T12:58:02.515Z,25.71
2022-09-03T13:00:33.795Z,25.69
2022-09-03T13:03:29.084Z,25.57
2022-09-03T13:06:19.918Z,25.40
2022-09-03T13:09:10.187Z,25.75
2022-09-03T13:11:37.334Z,26.08
2022-09-03T13:14:11.055Z,26.20
2022-09-03T13:16:43.791Z,26.38
2022-09-03T13:20:03.885Z,26.70
2022-09-03T13:23:09.103Z,26.54
2022-09-03T13:25:46.271Z,26.27
2022-09-03T13:29:06.606Z,26.24
2022-09-03T13:32:22.725Z,26.52
2022-09-03T13:35:04.415Z,26.47
2022-09-03T13:37:46.371Z,26.24
2022-09-03T13:40:33.381Z,26.42
2022-09-03T13:43:42.502Z,26.48
2022-09-03T13:46:21.237Z,26.65
2022-09-03T13:49:09.728Z,26.59
2022-09-03T13:52:00.145Z,26.55
2022-09-03T13:54:49.663Z,26.26
2022-09-03T13:57:57.256Z,25.95
2022-09-03T14:00:47.977Z,25.64
2022-09-03T14:03:49.035Z,25.41
2022-09-03T14:06:27.533Z,25.37
2022-09-03T14:09:35.110Z,25.06
2022-09-03T14:12:42.483Z,24.72
2022-09-03T14:15:51.837Z,24.75
2022-09-03T14:18:51.429Z,24.61
2022-09-03T14:21:56.614Z,24.39
2022-09-03T14:24:48.553Z,24.39
2022-09-03T14:27:28.456Z,24.29
2022-09-03T14:30:36.895Z,24.15
2022-09-03T14:33:30.711Z,24.01
2022-09-03T14:36:15.810Z,24.13
2022-09-03T14:39:12.953Z,24.22
2022-09-03T14:42:18.005Z,24.39
2022-09-03T14:45:17.652Z,24.47
2022-09-03T14:48:07.322Z,24.46
2022-09-03T14:50:59.454Z,24.55
2022-09-03T14:53:58.349Z,24.70
2022-09-03T14:56:50.340Z,24.75
2022-09-03T14:59:41.647Z,24.71
2022-09-03T15:02:31.007Z,24.60
2022-09-03T15:05:12.138Z,24.69
2022-09-03T15:08:01.537Z,24.78
2022-09-03T15:10:47.711Z,24.39
2022-09-03T15:13:52.038Z,24.48
2022-09-03T15:16:35.399Z,24.50
2022-09-03T15:19:35.693Z,24.42
2022-09-03T15:22:27.402Z,24.59
2022-09-03T15:25:24.918Z,24.43
2022-09-03T15:28:21.488Z,24.26
2022-09-03T15:31:03.325Z,23.88
2022-09-03T15:33:50.401Z,23.77
2022-09-03T15:36:24.382Z,23.54
2022-09-03T15:39:04.072Z,23.42
2022-09-03T15:41:57.402Z,22.80
2022-09-03T15:44:31.025Z,22.77
2022-09-03T15:47:14.085Z,22.48
2022-09-03T15:50:29.173Z,22.52
2022-09-03T15:53:36.279Z,22.43
2022-09-03T15:56:20.207Z,22.21
2022-09-03T15:59:19.404Z,22.28
2022-09-03T16:02:06.181Z,22.00
2022-09-03T16:05:13.800Z,22.16
2022-09-03T16:08:19.022Z,21.91
2022-09-03T16:11:26.838Z,22.21
2022-09-03T16:14:37.961Z,22.27
2022-09-03T16:17:25.901Z,22.36
2022-09-03T16:20:07.821Z,22.25
2022-09-03T16:22:47.535Z,22.26
2022-09-03T16:25:23.764Z,22.35
2022-09-03T16:28:14.710Z,21.97
2022-09-03T16:31:22.429Z,21.90
2022-09-03T16:34:19.084Z,21.94
2022-09-03T16:37:26.739Z,21.98
2022-09-03T16:40:13.833Z,22.12
2022-09-03T16:43:18.046Z,22.20
2022-09-03T16:46:19.234Z,22.31
2022-09-03T16:49:10.711Z,22.33
2022-09-03T16:52:02.283Z,22.26
2022-09-03T16:54:39.104Z,22.22
2022-09-03T16:57:54.665Z,22.17
2022-09-03T17:00:22.872Z,22.13
2022-09-03T17:03:26.208Z,22.22
2022-09-03T17:06:11.358Z,22.30
2022-09-03T17:08:58.334Z,22.39
2022-09-03T17:12:09.182Z,22.34
2022-09-03T17:15:03.698Z,22.39
2022-09-03T17:17:58.352Z,22.45
2022-09-03T17:20:50.075Z,22.52
2022-09-03T17:23:44.361Z,22.54
2022-09-03T17:26:15.391Z,22.50
2022-09-03T17:29:18.595Z,22.38
2022-09-03T17:31:51.422Z,22.34
2022-09-03T17:34:55.933Z,22.26
2022-09-03T17:37:44.708Z,22.23
2022-09-03T17:40:44.745Z,22.19
2022-09-03T17:43:35.359Z,22.16
2022-09-03T17:46:19.690Z,21.93
2022-09-03T17:48:53.101Z,21.89
2022-09-03T17:51:50.880Z,21.89
2022-09-03T17:54:23.720Z,21.88
2022-09-03T17:57:13.046Z,21.86
2022-09-03T18:00:18.316Z,21.81
2022-09-03T18:03:26.695Z,21.62
2022-09-03T18:06:04.312Z,21.58
2022-09-03T18:08:50.375Z,21.45
2022-09-03T18:11:22.463Z,21.29
2022-09-03T18:14:23.009Z,21.24
2022-09-03T18:17:03.682Z,21.22
2022-09-03T18:20:18.366Z,21.22
2022-09-03T18:23:40.908Z,21.20
2022-09-03T18:26:37.691Z,21.17
2022-09-03T18:29:59.260Z,21.19
2022-09-03T18:32:44.339Z,21.23
2022-09-03T18:35:30.295Z,21.08
2022-09-03T18:38:16.238Z,21.02
2022-09-03T18:41:33.698Z,21.09
2022-09-03T18:44:27.826Z,20.98
2022-09-03T18:50:50.328Z,20.96
2022-09-03T18:54:20.216Z,20.96
2022-09-03T18:57:08.888Z,21.03
2022-09-03T19:00:29.147Z,20.97
2022-09-03T19:03:58.473Z,20.88
2022-09-03T19:07:31.678Z,20.85
2022-09-03T19:10:55.379Z,20.80
2022-09-03T19:13:57.170Z,20.84
2022-09-03T19:17:24.556Z,20.67
2022-09-03T19:20:27.778Z,20.72
2022-09-03T19:23:12.712Z,20.80
2022-09-03T19:25:58.266Z,20.84
2022-09-03T19:28:48.341Z,20.82
2022-09-03T19:31:42.827Z,20.65
2022-09-03T19:35:04.817Z,20.63
2022-09-03T19:38:22.889Z,20.67
2022-09-03T19:41:44.833Z,20.59
2022-09-03T19:45:11.976Z,20.66
2022-09-03T19:48:35.469Z,20.51
2022-09-03T19:51:41.399Z,20.55
2022-09-03T19:54:28.112Z,20.56
2022-09-03T19:57:16.446Z,20.59
2022-09-03T20:00:06.435Z,20.61
2022-09-03T20:02:53.177Z,20.59
2022-09-03T20:05:40.027Z,20.56
2022-09-03T20:08:26.458Z,20.61
2022-09-03T20:10:57.380Z,20.57
2022-09-03T20:13:24.310Z,20.45
2022-09-03T20:16:09.597Z,20.60
2022-09-03T20:19:18.761Z,20.54
2022-09-03T20:21:51.687Z,20.50
2022-09-03T20:25:05.131Z,20.59
2022-09-03T20:28:02.097Z,20.58
2022-09-03T20:31:00.435Z,20.47
2022-09-03T20:33:34.902Z,20.34
2022-09-03T20:36:26.442Z,20.37
2022-09-03T20:39:17.300Z,20.42
2022-09-03T20:41:54.910Z,20.43
2022-09-03T20:44:47.528Z,20.29
2022-09-03T20:47:41.118Z,20.29
2022-09-03T20:50:43.759Z,20.34
2022-09-03T20:53:43.835Z,20.17
2022-09-03T20:56:28.631Z,20.24
2022-09-03T20:59:29.361Z,20.17
2022-09-03T21:02:03.274Z,20.08
2022-09-03T21:04:44.846Z,20.09
2022-09-03T21:07:38.155Z,20.18
2022-09-03T21:10:22.654Z,20.25
2022-09-03T21:13:24.231Z,20.23
2022-09-03T21:16:22.174Z,20.17
2022-09-03T21:18:59.490Z,20.20
2022-09-03T21:21:55.062Z,20.24
2022-09-03T21:24:56.851Z,20.22
2022-09-03T21:27:32.902Z,20.23
2022-09-03T21:30:06.004Z,20.21
2022-09-03T21:32:47.621Z,20.25
2022-09-03T21:35:26.476Z,20.24
2022-09-03T21:38:08.579Z,20.17
2022-09-03T21:40:46.803Z,20.26
2022-09-03T21:43:30.275Z,20.18
2022-09-03T21:46:23.436Z,20.19
2022-09-03T21:49:00.632Z,20.11
2022-09-03T21:51:31.805Z,20.11
2022-09-03T21:54:12.868Z,20.08
2022-09-03T21:57:12.249Z,20.03
2022-09-03T22:00:13.056Z,19.92
2022-09-03T22:02:40.561Z,19.96
2022-09-03T22:05:08.507Z,20.02
2022-09-03T22:07:53.819Z,20.04
2022-09-03T22:10:20.768Z,20.05
2022-09-03T22:13:21.852Z,19.93
2022-09-03T22:15:51.247Z,19.96
2022-09-03T22:18:36.808Z,19.82
2022-09-03T22:21:28.440Z,19.92
2022-09-03T22:24:52.370Z,19.93
2022-09-03T22:28:13.458Z,19.79
2022-09-03T22:31:02.114Z,19.84
2022-09-03T22:33:51.162Z,19.86
2022-09-03T22:36:37.456Z,19.83
2022-09-03T22:39:31.312Z,19.78
2022-09-03T22:42:26.159Z,19.81
2022-09-03T22:45:21.271Z,19.61
2022-09-03T22:48:19.188Z,19.70
2022-09-03T22:50:57.689Z,19.63
2022-09-03T22:54:05.382Z,19.63
2022-09-03T22:56:38.891Z,19.61
2022-09-03T22:59:24.221Z,19.58
2022-09-03T23:02:13.575Z,19.60
2022-09-03T23:05:03.349Z,19.51
2022-09-03T23:07:57.964Z,19.60
2022-09-03T23:10:41.270Z,19.60
2022-09-03T23:13:21.237Z,19.57
2022-09-03T23:16:08.241Z,19.60
2022-09-03T23:18:36.889Z,19.46
2022-09-03T23:21:25.497Z,19.54
2022-09-03T23:24:10.363Z,19.56
2022-09-03T23:26:49.359Z,19.40
2022-09-03T23:29:42.436Z,19.49
2022-09-03T23:32:09.752Z,19.47
2022-09-03T23:34:40.035Z,19.43
2022-09-03T23:37:35.356Z,19.47
2022-09-03T23:40:14.417Z,19.43
2022-09-03T23:43:13.687Z,19.35
2022-09-03T23:46:22.898Z,19.28
2022-09-03T23:49:36.400Z,19.21
2022-09-03T23:52:37.327Z,19.20
2022-09-03T23:55:33.338Z,19.22
2022-09-03T23:58:25.110Z,19.22
